createdAt,value
2018-04-30T00:01:33.343Z,96131.88
2018-04-30T00:04:01.612Z,96135.51
2018-04-30T00:06:29.911Z,96142.73
2018-04-30T00:08:58.215Z,96138.28
2018-04-30T00:11:26.479Z,96134.54
2018-04-30T00:13:54.847Z,96135.51
2018-04-30T00:16:23.119Z,96127.97
2018-04-30T00:21:18.966Z,96128.44
2018-04-30T00:23:47.231Z,96122.70
2018-04-30T00:26:15.527Z,96113.77
2018-04-30T00:28:43.804Z,96112.70
2018-04-30T00:31:12.092Z,96097.61
2018-04-30T00:33:40.458Z,96087.86
2018-04-30T00:36:08.626Z,96075.30
2018-04-30T00:38:36.898Z,96071.67
2018-04-30T00:41:05.185Z,96063.78
2018-04-30T00:43:33.443Z,96063.01
2018-04-30T00:46:01.698Z,96065.39
2018-04-30T00:48:29.978Z,96059.91
2018-04-30T00:50:58.244Z,96062.35
2018-04-30T00:53:26.502Z,96054.72
2018-04-30T00:55:54.790Z,96055.51
2018-04-30T00:58:23.058Z,96053.44
2018-04-30T01:00:51.366Z,96066.13
2018-04-30T01:03:19.643Z,96069.32
2018-04-30T01:05:47.919Z,96071.34
2018-04-30T01:08:16.197Z,96076.95
2018-04-30T01:10:44.475Z,96079.52
2018-04-30T01:13:12.742Z,96088.10
2018-04-30T01:15:41.036Z,96081.25
2018-04-30T01:18:09.324Z,96082.70
2018-04-30T01:20:37.594Z,96079.17
2018-04-30T01:23:05.854Z,96080.53
2018-04-30T01:25:34.131Z,96076.61
2018-04-30T01:28:02.404Z,96081.64
2018-04-30T01:30:30.707Z,96078.59
2018-04-30T01:32:58.992Z,96081.82
2018-04-30T01:35:27.274Z,96084.67
2018-04-30T01:37:55.535Z,96082.09
2018-04-30T01:40:23.796Z,96085.40
2018-04-30T01:42:52.835Z,96089.16
2018-04-30T01:45:21.871Z,96090.20
2018-04-30T01:47:50.137Z,96082.78
2018-04-30T01:50:18.423Z,96089.98
2018-04-30T01:52:46.710Z,96092.06
2018-04-30T01:55:14.963Z,96093.88
2018-04-30T01:57:43.240Z,96097.63
2018-04-30T02:00:11.538Z,96083.69
2018-04-30T02:02:39.854Z,96091.13
2018-04-30T02:05:08.118Z,96088.78
2018-04-30T02:07:36.413Z,96080.67
2018-04-30T02:10:05.449Z,96079.64
2018-04-30T02:12:33.713Z,96074.73
2018-04-30T02:15:01.993Z,96067.35
2018-04-30T02:17:30.263Z,96073.98
2018-04-30T02:19:58.567Z,96073.84
2018-04-30T02:22:26.844Z,96077.78
2018-04-30T02:24:55.107Z,96081.28
2018-04-30T02:27:23.378Z,96085.04
2018-04-30T02:29:51.686Z,96092.38
2018-04-30T02:32:19.958Z,96098.21
2018-04-30T02:34:48.252Z,96094.09
2018-04-30T02:37:16.550Z,96093.66
2018-04-30T02:39:45.590Z,96104.22
2018-04-30T02:42:13.857Z,96105.29
2018-04-30T02:44:42.131Z,96101.25
2018-04-30T02:47:10.400Z,96099.03
2018-04-30T02:49:38.659Z,96097.61
2018-04-30T02:52:07.695Z,96088.98
2018-04-30T02:54:35.959Z,96094.27
2018-04-30T02:57:04.234Z,96104.67
2018-04-30T02:59:32.503Z,96104.77
2018-04-30T03:02:00.788Z,96114.66
2018-04-30T03:04:29.047Z,96112.61
2018-04-30T03:07:03.212Z,96110.56
2018-04-30T03:09:31.479Z,96123.30
2018-04-30T03:11:59.747Z,96136.55
2018-04-30T03:14:28.031Z,96148.17
2018-04-30T03:16:56.291Z,96156.50
2018-04-30T03:19:24.554Z,96162.05
2018-04-30T03:21:52.832Z,96159.89
2018-04-30T03:24:21.092Z,96151.52
2018-04-30T03:26:49.363Z,96159.06
2018-04-30T03:29:17.643Z,96167.69
2018-04-30T03:31:45.902Z,96180.72
2018-04-30T03:34:14.946Z,96189.91
2018-04-30T03:36:43.244Z,96198.02
2018-04-30T03:39:11.488Z,96202.06
2018-04-30T03:41:39.760Z,96216.19
2018-04-30T03:44:08.030Z,96222.57
2018-04-30T03:46:36.276Z,96226.70
2018-04-30T03:49:05.324Z,96227.58
2018-04-30T03:51:33.618Z,96228.37
2018-04-30T03:54:01.959Z,96232.36
2018-04-30T03:56:30.223Z,96242.87
2018-04-30T03:58:58.486Z,96230.88
2018-04-30T04:01:44.583Z,96227.58
2018-04-30T04:07:27.339Z,96220.46
2018-04-30T04:09:55.659Z,96217.69
2018-04-30T04:12:23.933Z,96229.70
2018-04-30T04:14:52.204Z,96233.16
2018-04-30T04:17:20.565Z,96238.74
2018-04-30T04:19:48.953Z,96239.40
2018-04-30T04:22:17.231Z,96243.70
2018-04-30T04:24:45.489Z,96249.95
2018-04-30T04:27:13.855Z,96253.97
2018-04-30T04:29:42.116Z,96249.06
2018-04-30T04:32:10.394Z,96249.32
2018-04-30T04:34:38.702Z,96254.22
2018-04-30T04:37:06.979Z,96271.27
2018-04-30T04:39:35.246Z,96271.94
2018-04-30T04:42:03.519Z,96289.06
2018-04-30T04:44:31.891Z,96290.54
2018-04-30T04:47:00.162Z,96293.08
2018-04-30T04:49:28.550Z,96291.72
2018-04-30T04:51:56.822Z,96293.79
2018-04-30T04:54:25.093Z,96301.79
2018-04-30T04:56:53.359Z,96300.27
2018-04-30T04:59:21.651Z,96297.93
2018-04-30T05:01:49.935Z,96307.28
2018-04-30T05:04:18.246Z,96317.27
2018-04-30T05:06:46.596Z,96321.63
2018-04-30T05:09:14.866Z,96325.25
2018-04-30T05:11:43.143Z,96329.24
2018-04-30T05:14:11.447Z,96331.55
2018-04-30T05:16:39.706Z,96336.98
2018-04-30T05:19:08.079Z,96339.13
2018-04-30T05:21:36.351Z,96341.13
2018-04-30T05:24:04.619Z,96340.88
2018-04-30T05:26:32.995Z,96343.86
2018-04-30T05:29:01.257Z,96342.08
2018-04-30T05:31:29.654Z,96335.58
2018-04-30T05:33:58.010Z,96346.89
2018-04-30T05:36:26.206Z,96359.52
2018-04-30T05:38:54.473Z,96357.14
2018-04-30T05:41:22.727Z,96364.72
2018-04-30T05:43:51.779Z,96378.11
2018-04-30T05:46:20.056Z,96376.45
2018-04-30T05:48:48.338Z,96383.33
2018-04-30T05:51:16.607Z,96391.62
2018-04-30T05:53:44.907Z,96386.38
2018-04-30T05:56:13.162Z,96385.35
2018-04-30T05:58:41.452Z,96381.88
2018-04-30T06:01:09.730Z,96380.13
2018-04-30T06:03:37.995Z,96383.07
2018-04-30T06:06:06.276Z,96380.67
2018-04-30T06:08:34.543Z,96386.25
2018-04-30T06:11:02.806Z,96370.66
2018-04-30T06:13:31.172Z,96386.77
2018-04-30T06:15:59.432Z,96396.92
2018-04-30T06:18:27.706Z,96389.83
2018-04-30T06:20:55.971Z,96392.59
2018-04-30T06:23:25.003Z,96399.86
2018-04-30T06:25:53.283Z,96401.09
2018-04-30T06:28:23.089Z,96400.66
2018-04-30T06:30:51.371Z,96407.34
2018-04-30T06:33:19.641Z,96406.95
2018-04-30T06:35:47.962Z,96407.72
2018-04-30T06:38:16.170Z,96412.02
2018-04-30T06:40:44.430Z,96401.23
2018-04-30T06:43:13.486Z,96407.25
2018-04-30T06:45:41.746Z,96409.64
2018-04-30T06:48:10.007Z,96408.11
2018-04-30T06:50:38.294Z,96402.91
2018-04-30T06:53:06.561Z,96398.69
2018-04-30T06:55:34.936Z,96409.01
2018-04-30T06:58:03.198Z,96425.13
2018-04-30T07:00:31.467Z,96427.31
2018-04-30T07:03:00.494Z,96434.25
2018-04-30T07:05:28.758Z,96438.98
2018-04-30T07:07:57.054Z,96454.88
2018-04-30T07:10:25.429Z,96458.25
2018-04-30T07:12:54.616Z,96476.16
2018-04-30T07:15:22.874Z,96495.48
2018-04-30T07:17:51.170Z,96506.27
2018-04-30T07:20:19.549Z,96502.77
2018-04-30T07:22:47.798Z,96500.17
2018-04-30T07:25:16.074Z,96496.45
2018-04-30T07:27:44.401Z,96496.52
2018-04-30T07:30:13.391Z,96504.69
2018-04-30T07:32:41.659Z,96505.44
2018-04-30T07:35:09.947Z,96516.91
2018-04-30T07:37:38.297Z,96515.91
2018-04-30T07:40:06.571Z,96514.38
2018-04-30T07:42:35.671Z,96509.47
2018-04-30T07:45:03.922Z,96517.25
2018-04-30T07:47:32.226Z,96521.06
2018-04-30T07:50:00.487Z,96514.47
2018-04-30T07:52:28.746Z,96520.31
2018-04-30T07:54:57.786Z,96531.96
2018-04-30T07:57:26.141Z,96542.24
2018-04-30T07:59:54.530Z,96544.44
2018-04-30T08:02:22.798Z,96551.09
2018-04-30T08:04:51.070Z,96558.57
2018-04-30T08:07:19.456Z,96567.33
2018-04-30T08:09:47.732Z,96563.09
2018-04-30T08:12:16.010Z,96557.95
2018-04-30T08:14:44.289Z,96555.84
2018-04-30T08:17:13.534Z,96553.22
2018-04-30T08:19:41.858Z,96566.21
2018-04-30T08:22:10.138Z,96557.73
2018-04-30T08:24:38.418Z,96559.07
2018-04-30T08:27:06.679Z,96549.98
2018-04-30T08:29:34.943Z,96537.80
2018-04-30T08:32:04.047Z,96542.07
2018-04-30T08:34:32.327Z,96542.20
2018-04-30T08:37:00.615Z,96545.27
2018-04-30T08:39:28.894Z,96548.23
2018-04-30T08:41:57.182Z,96539.47
2018-04-30T08:44:25.465Z,96530.84
2018-04-30T08:46:53.723Z,96520.39
2018-04-30T08:49:21.985Z,96510.25
2018-04-30T08:51:50.278Z,96517.77
2018-04-30T08:54:18.534Z,96535.44
2018-04-30T08:56:46.821Z,96548.60
2018-04-30T08:59:15.083Z,96562.73
2018-04-30T09:01:43.404Z,96577.13
2018-04-30T09:04:11.662Z,96585.11
2018-04-30T09:06:39.922Z,96596.38
2018-04-30T09:09:08.303Z,96590.73
2018-04-30T09:11:36.563Z,96603.24
2018-04-30T09:14:04.846Z,96601.49
2018-04-30T09:16:33.117Z,96609.38
2018-04-30T09:19:01.415Z,96617.16
2018-04-30T09:21:29.705Z,96624.87
2018-04-30T09:23:57.971Z,96636.41
2018-04-30T09:26:26.229Z,96634.37
2018-04-30T09:28:54.503Z,96631.94
2018-04-30T09:31:22.772Z,96632.86
2018-04-30T09:33:51.890Z,96623.29
2018-04-30T09:36:20.157Z,96621.62
2018-04-30T09:38:48.613Z,96622.33
2018-04-30T09:41:17.735Z,96616.35
2018-04-30T09:43:45.994Z,96604.99
2018-04-30T09:46:15.047Z,96591.65
2018-04-30T09:48:43.310Z,96590.19
2018-04-30T09:51:11.563Z,96589.29
2018-04-30T09:53:39.839Z,96585.61
2018-04-30T09:56:08.116Z,96581.67
2018-04-30T09:58:37.748Z,96574.02
2018-04-30T10:01:05.998Z,96578.31
2018-04-30T10:03:34.280Z,96585.33
2018-04-30T10:06:02.535Z,96570.86
2018-04-30T10:08:30.832Z,96574.91
2018-04-30T10:10:59.112Z,96576.46
2018-04-30T10:13:27.385Z,96567.59
2018-04-30T10:15:55.660Z,96571.60
2018-04-30T10:18:23.941Z,96576.71
2018-04-30T10:20:52.236Z,96567.55
2018-04-30T10:23:20.546Z,96581.14
2018-04-30T10:25:48.792Z,96576.72
2018-04-30T10:28:17.079Z,96581.84
2018-04-30T10:30:45.415Z,96587.55
2018-04-30T10:33:13.711Z,96592.23
2018-04-30T10:35:42.074Z,96591.20
2018-04-30T10:38:10.331Z,96593.45
2018-04-30T10:40:38.657Z,96590.77
2018-04-30T10:43:06.939Z,96606.70
2018-04-30T10:45:35.279Z,96603.86
2018-04-30T10:48:03.558Z,96611.80
2018-04-30T10:50:31.819Z,96613.97
2018-04-30T10:53:00.107Z,96612.42
2018-04-30T10:55:28.370Z,96617.48
2018-04-30T10:57:56.642Z,96608.84
2018-04-30T11:00:24.912Z,96610.52
2018-04-30T11:02:53.927Z,96613.12
2018-04-30T11:05:22.206Z,96611.31
2018-04-30T11:07:51.079Z,96595.77
2018-04-30T11:10:19.372Z,96607.48
2018-04-30T11:12:47.622Z,96597.27
2018-04-30T11:15:16.668Z,96602.39
2018-04-30T11:17:44.917Z,96608.19
2018-04-30T11:20:13.184Z,96612.44
2018-04-30T11:22:41.461Z,96605.84
2018-04-30T11:25:09.727Z,96608.91
2018-04-30T11:27:38.152Z,96616.20
2018-04-30T11:30:06.399Z,96614.28
2018-04-30T11:32:34.666Z,96619.66
2018-04-30T11:35:02.950Z,96615.52
2018-04-30T11:37:31.210Z,96625.30
2018-04-30T11:39:59.526Z,96623.17
2018-04-30T11:42:27.770Z,96624.73
2018-04-30T11:44:56.101Z,96645.40
2018-04-30T11:47:24.392Z,96644.96
2018-04-30T11:49:53.425Z,96657.30
2018-04-30T11:52:21.703Z,96656.30
2018-04-30T11:54:49.971Z,96657.64
2018-04-30T11:57:18.227Z,96654.43
2018-04-30T11:59:47.276Z,96658.61
2018-04-30T12:02:15.563Z,96662.84
2018-04-30T12:04:43.940Z,96662.06
2018-04-30T12:07:12.208Z,96664.20
2018-04-30T12:09:40.491Z,96673.50
2018-04-30T12:12:08.788Z,96657.59
2018-04-30T12:14:37.115Z,96666.88
2018-04-30T12:17:05.390Z,96674.52
2018-04-30T12:19:33.672Z,96667.52
2018-04-30T12:22:02.013Z,96658.88
2018-04-30T12:24:30.209Z,96659.47
2018-04-30T12:26:58.491Z,96672.72
2018-04-30T12:29:26.766Z,96673.80
2018-04-30T12:31:55.031Z,96677.20
2018-04-30T12:34:23.311Z,96677.86
2018-04-30T12:36:51.570Z,96684.95
2018-04-30T12:39:20.698Z,96688.92
2018-04-30T12:41:49.079Z,96685.70
2018-04-30T12:44:17.361Z,96693.20
2018-04-30T12:46:45.654Z,96706.78
2018-04-30T12:49:13.947Z,96708.53
2018-04-30T12:51:42.213Z,96708.73
2018-04-30T12:54:10.487Z,96708.03
2018-04-30T12:56:38.763Z,96702.56
2018-04-30T12:59:07.040Z,96692.19
2018-04-30T13:01:35.332Z,96696.15
2018-04-30T13:04:03.641Z,96689.84
2018-04-30T13:06:31.910Z,96688.93
2018-04-30T13:09:00.985Z,96687.08
2018-04-30T13:11:29.243Z,96686.27
2018-04-30T13:13:57.577Z,96674.69
2018-04-30T13:16:25.846Z,96674.45
2018-04-30T13:18:54.142Z,96681.60
2018-04-30T13:21:22.411Z,96672.81
2018-04-30T13:23:50.682Z,96668.24
2018-04-30T13:26:18.951Z,96671.98
2018-04-30T13:28:47.216Z,96670.75
2018-04-30T13:31:16.243Z,96678.87
2018-04-30T13:33:44.520Z,96671.38
2018-04-30T13:36:12.784Z,96665.73
2018-04-30T13:38:41.177Z,96666.32
2018-04-30T13:41:09.455Z,96667.34
2018-04-30T13:43:37.786Z,96660.23
2018-04-30T13:46:05.986Z,96652.09
2018-04-30T13:48:34.263Z,96652.61
2018-04-30T13:51:02.527Z,96641.23
2018-04-30T13:53:31.556Z,96641.75
2018-04-30T13:55:59.839Z,96637.16
2018-04-30T13:58:28.200Z,96638.09
2018-04-30T14:00:56.459Z,96645.69
2018-04-30T14:03:24.755Z,96639.89
2018-04-30T14:05:53.014Z,96632.16
2018-04-30T14:08:21.268Z,96649.50
2018-04-30T14:10:50.319Z,96640.02
2018-04-30T14:13:18.587Z,96644.97
2018-04-30T14:15:46.863Z,96645.35
2018-04-30T14:18:15.224Z,96652.86
2018-04-30T14:20:43.491Z,96662.27
2018-04-30T14:23:11.754Z,96684.99
2018-04-30T14:25:40.836Z,96697.69
2018-04-30T14:28:09.095Z,96712.66
2018-04-30T14:30:37.399Z,96717.68
2018-04-30T14:33:06.458Z,96702.23
2018-04-30T14:35:34.819Z,96701.27
2018-04-30T14:38:03.075Z,96699.50
2018-04-30T14:40:31.377Z,96689.74
2018-04-30T14:42:59.671Z,96676.89
2018-04-30T14:45:27.931Z,96694.36
2018-04-30T14:47:56.207Z,96688.59
2018-04-30T14:50:24.475Z,96698.66
2018-04-30T14:52:52.740Z,96697.64
2018-04-30T14:55:21.026Z,96701.42
2018-04-30T14:57:49.286Z,96695.25
2018-04-30T15:00:17.550Z,96689.59
2018-04-30T15:02:45.836Z,96690.58
2018-04-30T15:05:14.119Z,96687.70
2018-04-30T15:07:42.395Z,96690.23
2018-04-30T15:10:10.726Z,96698.25
2018-04-30T15:12:38.984Z,96690.89
2018-04-30T15:15:07.330Z,96688.42
2018-04-30T15:17:35.600Z,96690.06
2018-04-30T15:20:03.910Z,96671.57
2018-04-30T15:22:32.178Z,96676.48
2018-04-30T15:25:00.535Z,96670.94
2018-04-30T15:27:28.812Z,96671.02
2018-04-30T15:29:57.085Z,96671.88
2018-04-30T15:32:25.363Z,96674.09
2018-04-30T15:34:53.634Z,96666.34
2018-04-30T15:37:21.904Z,96677.02
2018-04-30T15:39:50.188Z,96669.89
2018-04-30T15:42:18.449Z,96672.12
2018-04-30T15:44:46.763Z,96674.24
2018-04-30T15:47:15.122Z,96677.19
2018-04-30T15:49:43.406Z,96671.75
2018-04-30T15:52:11.674Z,96656.23
2018-04-30T15:54:39.961Z,96660.91
2018-04-30T15:57:08.222Z,96648.75
2018-04-30T15:59:36.484Z,96650.14
2018-04-30T16:02:04.773Z,96648.70
2018-04-30T16:04:33.054Z,96652.53
2018-04-30T16:07:01.331Z,96673.34
2018-04-30T16:09:29.620Z,96673.57
2018-04-30T16:11:57.979Z,96660.46
2018-04-30T16:14:26.268Z,96662.96
2018-04-30T16:16:54.531Z,96669.05
2018-04-30T16:19:22.793Z,96667.41
2018-04-30T16:21:51.933Z,96684.72
2018-04-30T16:24:20.207Z,96688.58
2018-04-30T16:26:48.663Z,96709.53
2018-04-30T16:29:16.936Z,96733.08
2018-04-30T16:31:45.206Z,96746.07
2018-04-30T16:34:13.473Z,96765.08
2018-04-30T16:36:42.500Z,96791.56
2018-04-30T16:39:10.871Z,96799.85
2018-04-30T16:41:39.130Z,96795.30
2018-04-30T16:44:07.402Z,96802.75
2018-04-30T16:46:35.692Z,96814.31
2018-04-30T16:49:03.955Z,96801.19
2018-04-30T16:51:32.230Z,96784.62
2018-04-30T16:54:00.523Z,96775.67
2018-04-30T16:56:28.805Z,96768.78
2018-04-30T16:58:57.065Z,96764.16
2018-04-30T17:01:25.348Z,96750.73
2018-04-30T17:03:53.609Z,96755.77
2018-04-30T17:06:23.239Z,96750.41
2018-04-30T17:08:51.619Z,96745.40
2018-04-30T17:11:19.896Z,96746.43
2018-04-30T17:13:48.171Z,96762.37
2018-04-30T17:16:16.550Z,96742.34
2018-04-30T17:18:44.840Z,96756.80
2018-04-30T17:21:13.165Z,96760.20
2018-04-30T17:23:41.448Z,96755.66
2018-04-30T17:26:09.738Z,96770.64
2018-04-30T17:28:38.023Z,96759.19
2018-04-30T17:31:06.307Z,96747.28
2018-04-30T17:33:34.592Z,96757.91
2018-04-30T17:36:02.879Z,96749.92
2018-04-30T17:38:31.240Z,96743.11
2018-04-30T17:40:59.555Z,96733.42
2018-04-30T17:43:27.791Z,96737.20
2018-04-30T17:45:56.072Z,96735.78
2018-04-30T17:48:24.333Z,96730.31
2018-04-30T17:50:52.619Z,96724.81
2018-04-30T17:53:20.924Z,96728.56
2018-04-30T17:55:49.223Z,96729.53
2018-04-30T17:58:17.492Z,96732.88
2018-04-30T18:00:45.846Z,96740.82
2018-04-30T18:03:14.127Z,96739.08
2018-04-30T18:05:42.412Z,96744.91
2018-04-30T18:08:10.772Z,96741.99
2018-04-30T18:10:39.144Z,96753.44
2018-04-30T18:13:07.500Z,96745.59
2018-04-30T18:15:36.546Z,96752.16
2018-04-30T18:18:04.814Z,96753.82
2018-04-30T18:20:33.078Z,96745.61
2018-04-30T18:23:02.276Z,96734.75
2018-04-30T18:25:30.550Z,96736.63
2018-04-30T18:27:58.871Z,96745.17
2018-04-30T18:30:27.171Z,96737.94
2018-04-30T18:32:55.472Z,96743.78
2018-04-30T18:35:23.800Z,96745.70
2018-04-30T18:37:52.088Z,96746.85
2018-04-30T18:40:21.180Z,96754.15
2018-04-30T18:42:50.495Z,96759.33
2018-04-30T18:45:19.108Z,96749.01
2018-04-30T18:47:48.435Z,96755.23
2018-04-30T18:50:17.824Z,96760.97
2018-04-30T18:52:46.694Z,96760.44
2018-04-30T18:55:16.291Z,96756.27
2018-04-30T18:57:45.483Z,96755.13
2018-04-30T19:00:13.880Z,96753.48
2018-04-30T19:02:43.267Z,96739.98
2018-04-30T19:05:12.951Z,96743.94
2018-04-30T19:07:42.840Z,96748.77
2018-04-30T19:10:12.608Z,96746.89
2018-04-30T19:12:43.448Z,96747.81
2018-04-30T19:15:14.070Z,96741.60
2018-04-30T19:17:44.798Z,96745.52
2018-04-30T19:20:14.599Z,96754.23
2018-04-30T19:22:44.743Z,96756.54
2018-04-30T19:25:15.398Z,96754.39
2018-04-30T19:27:45.513Z,96756.58
2018-04-30T19:30:15.355Z,96768.59
2018-04-30T19:32:45.327Z,96765.22
2018-04-30T19:35:16.948Z,96768.23
2018-04-30T19:37:46.980Z,96774.02
2018-04-30T19:40:16.929Z,96772.79
2018-04-30T19:42:47.816Z,96773.61
2018-04-30T19:45:17.610Z,96778.00
2018-04-30T19:47:47.699Z,96779.64
2018-04-30T19:50:17.514Z,96784.95
2018-04-30T19:52:47.454Z,96775.53
2018-04-30T19:55:17.137Z,96768.66
2018-04-30T19:57:47.183Z,96766.43
2018-04-30T20:00:17.031Z,96771.09
2018-04-30T20:02:47.004Z,96762.67
2018-04-30T20:05:16.875Z,96758.19
2018-04-30T20:07:47.635Z,96757.31
2018-04-30T20:10:17.693Z,96747.42
2018-04-30T20:12:47.632Z,96752.74
2018-04-30T20:15:18.141Z,96756.38
2018-04-30T20:17:48.293Z,96754.45
2018-04-30T20:20:18.957Z,96750.31
2018-04-30T20:22:49.028Z,96749.38
2018-04-30T20:25:18.878Z,96756.25
2018-04-30T20:27:49.041Z,96752.50
2018-04-30T20:30:19.051Z,96758.00
2018-04-30T20:32:48.925Z,96748.47
2018-04-30T20:35:18.945Z,96747.64
2018-04-30T20:37:48.268Z,96748.25
2018-04-30T20:40:17.688Z,96750.50
2018-04-30T20:42:47.118Z,96744.72
2018-04-30T20:45:17.929Z,96745.30
2018-04-30T20:47:47.869Z,96738.59
2018-04-30T20:50:17.944Z,96742.18
2018-04-30T20:52:47.742Z,96738.86
2018-04-30T20:55:17.504Z,96739.44
2018-04-30T20:57:47.395Z,96741.22
2018-04-30T21:00:17.111Z,96736.95
2018-04-30T21:02:47.069Z,96749.47
2018-04-30T21:05:17.645Z,96745.02
2018-04-30T21:07:47.715Z,96746.70
2018-04-30T21:10:17.847Z,96744.70
2018-04-30T21:12:47.345Z,96754.81
2018-04-30T21:15:16.027Z,96757.65
2018-04-30T21:17:44.617Z,96757.55
2018-04-30T21:20:13.841Z,96750.39
2018-04-30T21:22:42.993Z,96747.55
2018-04-30T21:25:11.306Z,96749.44
2018-04-30T21:27:39.616Z,96751.34
2018-04-30T21:30:08.704Z,96763.52
2018-04-30T21:32:36.955Z,96765.77
2018-04-30T21:35:05.231Z,96764.88
2018-04-30T21:37:33.510Z,96767.16
2018-04-30T21:40:01.878Z,96764.80
2018-04-30T21:42:30.084Z,96778.00
2018-04-30T21:44:58.347Z,96778.23
2018-04-30T21:47:26.690Z,96783.38
2018-04-30T21:49:54.967Z,96776.41
2018-04-30T21:52:23.227Z,96781.83
2018-04-30T21:54:51.506Z,96778.17
2018-04-30T21:57:19.802Z,96770.53
2018-04-30T21:59:48.070Z,96783.91
2018-04-30T22:02:16.454Z,96783.92
2018-04-30T22:04:44.719Z,96784.52
2018-04-30T22:07:12.976Z,96784.54
2018-04-30T22:09:42.017Z,96782.64
2018-04-30T22:12:10.454Z,96785.17
2018-04-30T22:14:38.648Z,96769.79
2018-04-30T22:17:06.950Z,96789.37
2018-04-30T22:19:35.295Z,96782.34
2018-04-30T22:22:03.562Z,96776.20
2018-04-30T22:24:32.683Z,96781.36
2018-04-30T22:27:00.939Z,96779.81
2018-04-30T22:29:29.202Z,96792.34
2018-04-30T22:31:58.331Z,96771.42
2018-04-30T22:34:26.598Z,96800.20
2018-04-30T22:36:55.029Z,96780.64
2018-04-30T22:39:23.164Z,96780.16
2018-04-30T22:41:51.435Z,96776.69
2018-04-30T22:44:19.776Z,96778.02
2018-04-30T22:46:48.822Z,96779.02
2018-04-30T22:49:17.106Z,96774.02
2018-04-30T22:51:45.370Z,96804.16
2018-04-30T22:54:13.739Z,96784.32
2018-04-30T22:56:42.021Z,96790.06
2018-04-30T22:59:11.419Z,96776.02
2018-04-30T23:01:39.694Z,96776.59
2018-04-30T23:04:07.978Z,96786.27
2018-04-30T23:06:36.240Z,96792.88
2018-04-30T23:09:04.507Z,96803.73
2018-04-30T23:11:32.776Z,96802.63
2018-04-30T23:14:01.793Z,96803.05
2018-04-30T23:16:30.179Z,96809.59
2018-04-30T23:18:58.435Z,96820.13
2018-04-30T23:21:26.706Z,96823.07
2018-04-30T23:23:55.813Z,96821.08
2018-04-30T23:26:24.066Z,96846.35
2018-04-30T23:28:53.084Z,96852.53
2018-04-30T23:31:21.362Z,96860.84
2018-04-30T23:33:49.642Z,96870.87
2018-04-30T23:36:17.914Z,96880.05
2018-04-30T23:38:46.166Z,96894.47
2018-04-30T23:41:15.214Z,96898.56
2018-04-30T23:43:43.532Z,96936.37
2018-04-30T23:46:11.729Z,96901.50
2018-04-30T23:48:40.018Z,96917.39
2018-04-30T23:51:08.273Z,96918.61
2018-04-30T23:53:37.382Z,96908.45
2018-04-30T23:56:05.663Z,96918.14
2018-04-30T23:58:33.935Z,96912.22
